• pl
  • eng

Awiacja
WIADOMOŚCI
ostatnia aktualizacja: 13.03.2020 07:57
Od dnia 13.03.2020 do odwołania zawieszone zostaje opracowywanie prognozy Gafor.
Kliknij na pogrubioną czerwoną nazwę, aby odkodować depeszę. 09:01 10.04.2020
  • WIND
  • SIGNIFICANT EURO
  • SIGNIFICANT
  • SIGMET
  • AIRMET
  • TAF FC
  • TAF FT
  • METAR GG30
  • METAR GG00


METAR EPBY 100700Z 30006KT 270V330 CAVOK 06/M01 Q1025=

METAR EPGD 100700Z 32005KT CAVOK 07/02 Q1024 =

METAR EPKK 100700Z 31003KT 260V020 CAVOK 10/03 Q1025 =

METAR EPKT 100700Z 34003KT 280V040 CAVOK 07/01 Q1025 =

METAR EPLB 100700Z 31009KT 290V350 CAVOK 08/M01 Q1024 =

METAR EPLL 100700Z 27004KT 230V300 CAVOK 07/00 Q1025 =

METAR EPMO 100700Z VRB02KT CAVOK 08/03 Q1025 =

METAR EPPO 100700Z 32006KT CAVOK 07/01 Q1026 =

METAR EPRA 100700Z 32006KT CAVOK 08/03 Q1025=

METAR EPRZ 100700Z 36007KT 330V040 CAVOK 09/M02 Q1024 =

METAR EPSC 100700Z 30006KT 260V330 CAVOK 06/03 Q1026 =

METAR EPSY 100700Z 00000KT CAVOK 08/03 Q1024=

METAR EPWA 100700Z 32003KT 280V010 9999 FEW023 08/02 Q1025 NOSIG=

METAR EPWR 100700Z 32005KT CAVOK 08/00 Q1027 =

METAR EPZG 100700Z 25005KT 200V290 CAVOK 09/01 Q1027 =
Awiacja.imgw.pl jest pogodowym serwisem informacyjnym
Instytutu Meteorologii i Gospodarki Wodnej Państwowego Instytutu Badawczego.
Copyright IMGW PIB 2009-2019© Wszelkie prawa zastrzeżone.